La Guadeloupe, Canada
Current Conditions -  °F | °C
As of 3:24 AM on Sunday 26 Oct 2014 (Local Time) from CYSC Reporting Station
Light Rain Light Rain  
Wind Chill: 43°   Ceiling: 2700
Heat Index: 46°   Visibility: 6mi
Dew Point: 46°   Wind: 7mph
Humidity: 100%   Direction: 210°SSW
Pressure: 29.36"   Gusts: NA
Location:  45.97°N, 70.95°W
Report Text: CYSC 260724Z AUTO 21006KT 6SM -RA BR FEW016 SCT022 BKN027 OVC046 08/08 A2936 RMK SLP944 DENSITY ALT 800FT
Loading
Personal Weather Stations






























Interactive Weather Map
Tropical Storm Tracking
New forecast layout! Learn more

10-Day Weather Forecast

Advertisements
Track Severe Weather on mobile